Map

Track Data

SID SEASON NUMBER BASIN SUBBASIN NAME ISO_TIME NATURE LAT LON WMO_WIND WMO_PRES WMO_AGENCY TRACK_TYPE DIST2LAND LANDFALL IFLAG USA_AGENCY USA_ATCF_ID USA_LAT USA_LON USA_RECORD USA_STATUS USA_WIND USA_PRES USA_SSHS USA_R34_NE USA_R34_SE USA_R34_SW USA_R34_NW USA_R50_NE USA_R50_SE USA_R50_SW USA_R50_NW USA_R64_NE USA_R64_SE USA_R64_SW USA_R64_NW USA_POCI USA_ROCI USA_RMW USA_EYE TOKYO_LAT TOKYO_LON TOKYO_GRADE TOKYO_WIND TOKYO_PRES TOKYO_R50_DIR TOKYO_R50_LONG TOKYO_R50_SHORT TOKYO_R30_DIR TOKYO_R30_LONG TOKYO_R30_SHORT TOKYO_LAND CMA_LAT CMA_LON CMA_CAT CMA_WIND CMA_PRES HKO_LAT HKO_LON HKO_CAT HKO_WIND HKO_PRES NEWDELHI_LAT NEWDELHI_LON NEWDELHI_GRADE NEWDELHI_WIND NEWDELHI_PRES NEWDELHI_CI NEWDELHI_DP NEWDELHI_POCI REUNION_LAT REUNION_LON REUNION_TYPE REUNION_WIND REUNION_PRES REUNION_TNUM REUNION_CI REUNION_RMW REUNION_R34_NE REUNION_R34_SE REUNION_R34_SW REUNION_R34_NW REUNION_R50_NE REUNION_R50_SE REUNION_R50_SW REUNION_R50_NW REUNION_R64_NE REUNION_R64_SE REUNION_R64_SW REUNION_R64_NW BOM_LAT BOM_LON BOM_TYPE BOM_WIND BOM_PRES BOM_TNUM BOM_CI BOM_RMW BOM_R34_NE BOM_R34_SE BOM_R34_SW BOM_R34_NW BOM_R50_NE BOM_R50_SE BOM_R50_SW BOM_R50_NW BOM_R64_NE BOM_R64_SE BOM_R64_SW BOM_R64_NW BOM_ROCI BOM_POCI BOM_EYE BOM_POS_METHOD BOM_PRES_METHOD NADI_LAT NADI_LON NADI_CAT NADI_WIND NADI_PRES WELLINGTON_LAT WELLINGTON_LON WELLINGTON_WIND WELLINGTON_PRES DS824_LAT DS824_LON DS824_STAGE DS824_WIND DS824_PRES TD9636_LAT TD9636_LON TD9636_STAGE TD9636_WIND TD9636_PRES TD9635_LAT TD9635_LON TD9635_WIND TD9635_PRES TD9635_ROCI NEUMANN_LAT NEUMANN_LON NEUMANN_CLASS NEUMANN_WIND NEUMANN_PRES MLC_LAT MLC_LON MLC_CLASS MLC_WIND MLC_PRES USA_GUST BOM_GUST BOM_GUST_PER REUNION_GUST REUNION_GUST_PER USA_SEAHGT USA_SEARAD_NE USA_SEARAD_SE USA_SEARAD_SW USA_SEARAD_NW STORM_SPEED STORM_DIR
1992286N12115 1992 108 WP MM ANGELA 1992-10-12 06:00:00 NR 11.5000 114.500 main 439 422 O_____________ jtwc_wp WP241992 11.5000 114.500 15 -1 3 90
1992286N12115 1992 108 WP MM ANGELA 1992-10-12 09:00:00 NR 11.5000 114.663 main 422 415 P_____________ WP241992 11.5000 114.663 15 -1 3 90
1992286N12115 1992 108 WP MM ANGELA 1992-10-12 12:00:00 NR 11.5000 114.800 main 415 407 O_____________ jtwc_wp WP241992 11.5000 114.800 15 -1 2 90
1992286N12115 1992 108 WP MM ANGELA 1992-10-12 15:00:00 NR 11.5000 114.900 main 407 399 P_____________ WP241992 11.5000 114.900 15 -1 2 90
1992286N12115 1992 108 WP MM ANGELA 1992-10-12 18:00:00 NR 11.5000 115.000 main 399 391 O_____________ jtwc_wp WP241992 11.5000 115.000 15 -1 2 90
1992286N12115 1992 108 WP MM ANGELA 1992-10-12 21:00:00 NR 11.5000 115.143 main 391 375 P_____________ WP241992 11.5000 115.143 15 -1 3 90
1992286N12115 1992 108 WP MM ANGELA 1992-10-13 00:00:00 NR 11.5000 115.300 main 375 367 O_____________ jtwc_wp WP241992 11.5000 115.300 15 -1 3 91
1992286N12115 1992 108 WP MM ANGELA 1992-10-13 03:00:00 NR 11.4925 115.458 main 360 352 P_____________ WP241992 11.4925 115.458 17 -1 3 90
1992286N12115 1992 108 WP MM ANGELA 1992-10-13 06:00:00 NR 11.5000 115.600 main 352 345 O_____________ jtwc_wp WP241992 11.5000 115.600 20 -1 2 76
1992286N12115 1992 108 WP MM ANGELA 1992-10-13 09:00:00 NR 11.5500 115.700 main 345 345 P_____________ WP241992 11.5500 115.700 20 -1 2 63
1992286N12115 1992 108 WP MM ANGELA 1992-10-13 12:00:00 NR 11.6000 115.800 main 346 339 O_____________ jtwc_wp WP241992 11.6000 115.800 20 -1 2 78
1992286N12115 1992 108 WP MM ANGELA 1992-10-13 15:00:00 NR 11.6000 115.943 main 339 326 P_____________ WP241992 11.6000 115.943 20 -1 3 90
1992286N12115 1992 108 WP MM ANGELA 1992-10-13 18:00:00 NR 11.6000 116.100 main 326 320 O_____________ jtwc_wp WP241992 11.6000 116.100 20 -1 3 82
1992286N12115 1992 108 WP MM ANGELA 1992-10-13 21:00:00 NR 11.6425 116.250 main 314 314 P_____________ WP241992 11.6425 116.250 20 -1 3 71
1992286N12115 1992 108 WP MM ANGELA 1992-10-14 00:00:00 NR 11.7000 116.400 main 317 308 O_____________ jtwc_wp WP241992 11.7000 116.400 20 -1 3 70
1992286N12115 1992 108 WP MM ANGELA 1992-10-14 03:00:00 NR 11.7425 116.535 main 308 298 P_____________ WP241992 11.7425 116.535 20 -1 3 71
1992286N12115 1992 108 WP MM ANGELA 1992-10-14 06:00:00 NR 11.8000 116.700 main 298 283 O_____________ jtwc_wp WP241992 11.8000 116.700 20 -1 4 69
1992286N12115 1992 108 WP MM ANGELA 1992-10-14 09:00:00 NR 11.9000 116.950 main 283 255 P_____________ WP241992 11.9000 116.950 20 -1 5 68
1992286N12115 1992 108 WP MM ANGELA 1992-10-14 12:00:00 NR 12.0000 117.200 main 255 245 O_____________ jtwc_wp WP241992 12.0000 117.200 20 -1 4 69
1992286N12115 1992 108 WP MM ANGELA 1992-10-14 15:00:00 NR 12.0499 117.358 main 235 230 P_____________ WP241992 12.0499 117.358 20 -1 3 71
1992286N12115 1992 108 WP MM ANGELA 1992-10-14 18:00:00 NR 12.1000 117.500 main 230 216 O_____________ jtwc_wp WP241992 12.1000 117.500 20 -1 3 67
1992286N12115 1992 108 WP MM ANGELA 1992-10-14 21:00:00 NR 12.1850 117.685 main 216 205 P_____________ WP241992 12.1850 117.685 22 -1 2 130
1992286N12115 1992 108 WP MM ANGELA 1992-10-15 00:00:00 TS 11.9500 117.683 1004 tokyo main 205 186 OOO___________ jtwc_wp WP241992 12.3000 117.900 25 -1 11.0000 117.000 2 1004 0 0 0 11.5000 117.500 0 19 1002 3 126
1992286N12115 1992 108 WP MM ANGELA 1992-10-15 03:00:00 TS 12.0282 117.902 main 186 173 PPP___________ WP241992 12.4350 118.157 25 -1 11.4878 117.537 2 1004 0 0 11.7550 117.755 0 21 1001 6 58
1992286N12115 1992 108 WP MM ANGELA 1992-10-15 06:00:00 TS 12.2400 118.160 1004 tokyo main 172 171 OOO___________ jtwc_wp WP241992 12.6000 118.400 25 -1 12.0000 118.000 2 1004 0 0 0 12.0000 118.000 1 23 1000 7 43
1992286N12115 1992 108 WP MM ANGELA 1992-10-15 09:00:00 TS 12.5216 118.378 main 180 180 PPP___________ WP241992 12.7925 118.587 25 -1 12.5374 118.325 2 1004 0 0 12.2350 118.223 1 23 1000 7 32
1992286N12115 1992 108 WP MM ANGELA 1992-10-15 12:00:00 TS 12.8333 118.533 1004 tokyo main 200 187 OOO___________ jtwc_wp WP241992 13.0000 118.700 25 -1 13.0000 118.500 2 1004 0 0 0 12.5000 118.400 1 23 1000 6 20
1992286N12115 1992 108 WP MM ANGELA 1992-10-15 15:00:00 TS 13.1125 118.602 main 187 183 PPP___________ WP241992 13.2075 118.730 25 -1 13.2875 118.538 2 1003 0 0 12.8425 118.537 1 23 1000 5 8
1992286N12115 1992 108 WP MM ANGELA 1992-10-15 18:00:00 TS 13.3667 118.600 1002 tokyo main 183 183 OOO___________ jtwc_wp WP241992 13.4000 118.700 25 -1 13.5000 118.500 2 1002 0 0 0 13.2000 118.600 1 23 1000 5 357
1992286N12115 1992 108 WP MM ANGELA 1992-10-15 21:00:00 TS 13.6200 118.577 main 185 185 PPP___________ WP241992 13.5725 118.650 27 -1 13.7500 118.500 2 1002 0 0 13.5375 118.580 1 26 1000 5 352
1992286N12115 1992 108 WP MM ANGELA 1992-10-16 00:00:00 TS 13.8333 118.533 1002 tokyo main 199 194 OOO___________ jtwc_wp WP241992 13.7000 118.600 30 -1 14.0000 118.500 2 1002 0 0 0 13.8000 118.500 1 29 1000 4 352
1992286N12115 1992 108 WP MM ANGELA 1992-10-16 03:00:00 TS 13.9791 118.520 main 194 189 PPP___________ WP241992 13.7650 118.600 30 -1 14.2499 118.545 2 1001 0 0 13.9225 118.415 1 29 1000 3 347
1992286N12115 1992 108 WP MM ANGELA 1992-10-16 06:00:00 TS 14.1000 118.467 1000 tokyo main 189 189 OOO___________ jtwc_wp WP241992 13.8000 118.600 30 -1 14.5000 118.500 2 1000 0 0 0 14.0000 118.300 1 29 1000 4 327
1992286N12115 1992 108 WP MM ANGELA 1992-10-16 09:00:00 TS 14.2800 118.318 main 201 201 PPP___________ WP241992 13.8500 118.565 30 -1 14.7876 118.230 2 1000 0 0 14.2025 118.158 1 33 999 4 313
1992286N12115 1992 108 WP MM ANGELA 1992-10-16 12:00:00 TS 14.4000 118.133 1000 tokyo main 219 219 OOO___________ jtwc_wp WP241992 13.9000 118.500 30 -1 15.0000 117.900 2 1000 0 0 0 14.3000 118.000 2 38 998 4 285
1992286N12115 1992 108 WP MM ANGELA 1992-10-16 15:00:00 TS 14.3783 117.951 main 230 230 PPP___________ WP241992 13.9650 118.415 30 -1 15.0750 117.655 2 1000 0 0 14.0950 117.782 2 38 998 3 228
1992286N12115 1992 108 WP MM ANGELA 1992-10-16 18:00:00 TS 14.1923 117.900 1000 tokyo main 246 239 OOOO__________ jtwc_wp WP241992 14.0000 118.300 30 -1 15.0000 117.500 2 1000 0 0 0 13.8000 117.700 2 38 998 13.3000 118.700 TD 25 995 3 176
1992286N12115 1992 108 WP MM ANGELA 1992-10-16 21:00:00 TS 14.0343 117.979 main 243 243 PPPP__________ WP241992 13.9725 118.150 32 -1 14.7875 117.478 2 1000 0 0 13.6202 118.015 2 38 996 13.4800 118.570 TD 27 992 3 157
1992286N12115 1992 108 WP MM ANGELA 1992-10-17 00:00:00 TS 13.8933 118.027 1000 tokyo main 247 247 OOOO__________ jtwc_wp WP241992 13.9000 118.000 35 0 14.5000 117.500 2 1000 0 0 0 13.5000 118.300 2 38 995 13.6000 118.400 TD 30 990 3 191
1992286N12115 1992 108 WP MM ANGELA 1992-10-17 03:00:00 TS 13.7769 117.916 main 262 261 PPPP__________ WP241992 13.8150 117.900 40 0 14.2425 117.473 2 998 0 0 13.4275 118.125 2 38 995 13.6225 118.165 TD 32 987 4 233
1992286N12115 1992 108 WP MM ANGELA 1992-10-17 06:00:00 TS 13.6750 117.725 35 996 tokyo main 283 282 OOOO__________ jtwc_wp WP241992 13.7000 117.800 45 0 14.0000 117.400 3 35 996 0 9 180 180 0 13.4000 117.800 2 38 995 13.6000 117.900 TS 35 985 4 242
1992286N12115 1992 108 WP MM ANGELA 1992-10-17 09:00:00 TS 13.5893 117.549 main 303 303 PPPP__________ WP241992 13.5500 117.665 47 0 13.7850 117.272 3 37 994 0 9 180 180 13.3999 117.600 2 43 992 13.6225 117.658 TS 37 982 4 244
1992286N12115 1992 108 WP MM ANGELA 1992-10-17 12:00:00 TS 13.5000 117.350 40 992 tokyo main 313 313 OOOO__________ jtwc_wp WP241992 13.4000 117.500 50 0 13.6000 117.100 3 40 992 0 9 180 180 0 13.4000 117.400 3 48 990 13.6000 117.400 TS 40 980 5 245
1992286N12115 1992 108 WP MM ANGELA 1992-10-17 15:00:00 TS 13.3950 117.120 main 346 346 PPPP__________ WP241992 13.3000 117.308 52 0 13.4425 116.908 3 45 988 0 9 210 210 13.3650 117.165 3 48 987 13.4725 117.100 TS 45 977 5 244
1992286N12115 1992 108 WP MM ANGELA 1992-10-17 18:00:00 TS 13.2750 116.875 50 985 tokyo main 359 359 OOOO__________ jtwc_wp WP241992 13.2000 117.100 55 0 13.3000 116.700 4 50 985 0 9 240 240 0 13.3000 116.900 3 48 985 13.3000 116.800 STS 50 975 5 242
1992286N12115 1992 108 WP MM ANGELA 1992-10-17 21:00:00 TS 13.1450 116.632 main 371 371 PPPP__________ WP241992 13.0575 116.900 57 0 13.1425 116.500 4 52 982 0 9 250 250 13.2301 116.585 3 48 985 13.1500 116.543 STS 55 972 5 239
1992286N12115 1992 108 WP MM ANGELA 1992-10-18 00:00:00 TS 13.0000 116.400 55 980 tokyo main 383 383 OOOO__________ jtwc_wp WP241992 12.9000 116.700 60 0 13.0000 116.300 4 55 980 9 50 50 9 260 260 0 13.1000 116.300 3 48 985 13.0000 116.300 STS 60 970 5 233
1992286N12115 1992 108 WP MM ANGELA 1992-10-18 03:00:00 TS 12.8337 116.202 main 391 391 PPPP__________ WP241992 12.7500 116.508 62 0 12.8925 116.108 4 57 977 9 50 50 9 280 280 12.8349 116.142 3 53 982 12.8575 116.050 STS 62 967 5 230
1992286N12115 1992 108 WP MM ANGELA 1992-10-18 06:00:00 TS 12.6750 116.000 60 975 tokyo main 406 402 OOOO__________ jtwc_wp WP241992 12.6000 116.300 65 1 12.8000 115.900 4 60 975 9 50 50 9 300 300 0 12.6000 116.000 3 58 980 12.7000 115.800 T 65 965 5 237
1992286N12115 1992 108 WP MM ANGELA 1992-10-18 09:00:00 TS 12.5512 115.761 main 422 422 PPPP__________ WP241992 12.4425 116.058 67 1 12.6925 115.657 4 60 975 9 50 50 9 300 300 12.5700 115.780 3 58 980 12.5000 115.550 T 65 965 5 245
1992286N12115 1992 108 WP MM ANGELA 1992-10-18 12:00:00 TS 12.4500 115.500 60 975 tokyo main 446 437 OOOO__________ jtwc_wp WP241992 12.3000 115.800 70 1 12.6000 115.400 4 60 975 9 50 50 9 300 300 0 12.6000 115.500 3 58 980 12.3000 115.300 T 65 965 6 250
1992286N12115 1992 108 WP MM ANGELA 1992-10-18 15:00:00 TS 12.3569 115.225 main 457 448 PPPP__________ WP241992 12.1850 115.550 72 1 12.5500 115.150 4 62 972 9 55 55 9 300 300 12.5651 115.150 3 63 975 12.1275 115.050 T 62 967 6 252
1992286N12115 1992 108 WP MM ANGELA 1992-10-18 18:00:00 TS 12.2750 114.950 65 970 tokyo main 462 462 OOOO__________ jtwc_wp WP241992 12.1000 115.300 75 1 12.5000 114.900 5 65 970 9 60 60 9 300 300 0 12.5000 114.800 4 68 970 12.0000 114.800 STS 60 970 5 253
1992286N12115 1992 108 WP MM ANGELA 1992-10-18 21:00:00 TS 12.2018 114.694 main 477 477 PPPP__________ WP241992 12.0350 115.058 80 1 12.4075 114.650 5 65 970 9 60 60 9 300 300 12.4299 114.528 4 68 970 11.9350 114.543 STS 60 970 5 253
1992286N12115 1992 108 WP MM ANGELA 1992-10-19 00:00:00 TS 12.1250 114.450 65 970 tokyo main 485 485 OOOO__________ jtwc_wp WP241992 12.0000 114.800 85 2 12.3000 114.400 5 65 970 9 60 60 9 300 300 0 12.3000 114.300 4 68 970 11.9000 114.300 STS 60 970 5 247
1992286N12115 1992 108 WP MM ANGELA 1992-10-19 03:00:00 TS 12.0025 114.205 main 500 495 PPPP__________ WP241992 11.9850 114.493 87 2 12.1775 114.150 5 65 970 9 60 60 9 280 280 12.0275 114.085 4 72 965 11.8200 114.092 STS 60 970 5 247
1992286N12115 1992 108 WP MM ANGELA 1992-10-19 06:00:00 TS 11.9250 113.975 65 970 tokyo main 495 472 OOOO__________ jtwc_wp WP241992 12.0000 114.200 90 2 12.1000 113.900 5 65 970 9 60 60 9 260 260 0 11.8000 113.900 4 77 960 11.8000 113.900 STS 60 970 4 264
1992286N12115 1992 108 WP MM ANGELA 1992-10-19 09:00:00 TS 11.9587 113.771 main 472 449 PPPP__________ WP241992 12.0349 113.985 90 2 12.1125 113.643 5 65 970 9 60 60 9 260 260 11.7749 113.765 4 77 960 11.9125 113.693 STS 55 975 4 291
1992286N12115 1992 108 WP MM ANGELA 1992-10-19 12:00:00 TS 12.0750 113.575 65 970 tokyo main 449 426 OOOO__________ jtwc_wp WP241992 12.1000 113.800 90 2 12.2000 113.400 5 65 970 9 60 60 9 260 260 0 11.9000 113.600 4 77 960 12.1000 113.500 STS 50 980 5 306
1992286N12115 1992 108 WP MM ANGELA 1992-10-19 15:00:00 TS 12.2462 113.363 main 426 402 PPPP__________ WP241992 12.1925 113.593 87 2 12.3425 113.193 5 65 970 9 65 65 9 260 260 12.1426 113.308 4 77 960 12.3074 113.357 STS 47 982 5 310
1992286N12115 1992 108 WP MM ANGELA 1992-10-19 18:00:00 TS 12.4250 113.150 65 970 tokyo main 402 369 OOOO__________ jtwc_wp WP241992 12.3000 113.400 85 2 12.5000 113.000 5 65 970 9 70 70 9 260 260 0 12.4000 113.000 4 77 960 12.5000 113.200 TS 45 985 5 307
1992286N12115 1992 108 WP MM ANGELA 1992-10-19 21:00:00 TS 12.5588 112.937 main 369 358 PPPP__________ WP241992 12.4075 113.243 82 1 12.6225 112.785 5 65 970 9 70 70 9 260 260 12.5374 112.785 4 72 965 12.6676 112.935 TS 47 982 4 297
1992286N12115 1992 108 WP MM ANGELA 1992-10-20 00:00:00 TS 12.6250 112.750 65 970 tokyo main 358 336 OOOO__________ jtwc_wp WP241992 12.5000 113.100 80 1 12.7000 112.600 5 65 970 9 70 70 9 260 260 0 12.6000 112.600 4 68 970 12.7000 112.700 STS 50 980 3 275
1992286N12115 1992 108 WP MM ANGELA 1992-10-20 03:00:00 TS 12.5900 112.593 main 336 325 PPPP__________ WP241992 12.5575 112.942 77 1 12.7300 112.477 5 65 970 9 70 70 9 260 260 12.6300 112.355 4 68 970 12.4425 112.597 STS 52 977 3 248
1992286N12115 1992 108 WP MM ANGELA 1992-10-20 06:00:00 TS 12.5250 112.500 65 970 tokyo main 326 326 OOOO__________ jtwc_wp WP241992 12.6000 112.800 75 1 12.7000 112.400 5 65 970 9 70 70 9 260 260 0 12.6000 112.200 4 68 970 12.2000 112.600 STS 55 975 1 227
1992286N12115 1992 108 WP MM ANGELA 1992-10-20 09:00:00 TS 12.5006 112.494 main 326 326 PPPP__________ WP241992 12.6425 112.685 70 1 12.6000 112.320 5 65 970 9 70 70 9 260 260 12.4700 112.278 4 63 975 12.2900 112.692 STS 55 975 0 0
1992286N12115 1992 108 WP MM ANGELA 1992-10-20 12:00:00 TS 12.5250 112.525 65 970 tokyo main 326 325 OOOO__________ jtwc_wp WP241992 12.7000 112.600 65 1 12.5000 112.300 5 65 970 9 70 70 9 260 260 0 12.4000 112.400 3 58 980 12.5000 112.800 STS 55 975 1 16
1992286N12115 1992 108 WP MM ANGELA 1992-10-20 15:00:00 TS 12.6206 112.529 main 325 325 PPPP__________ WP241992 12.7925 112.535 62 0 12.4625 112.393 5 65 970 9 70 70 9 260 260 12.5700 112.365 3 58 980 12.6575 112.823 STS 55 975 2 0
1992286N12115 1992 108 WP MM ANGELA 1992-10-20 18:00:00 TS 12.7500 112.525 65 970 tokyo main 325 325 OOOO__________ jtwc_wp WP241992 12.9000 112.500 60 0 12.5000 112.500 5 65 970 9 70 70 9 260 260 0 12.8000 112.300 3 58 980 12.8000 112.800 STS 55 975 2 354
1992286N12115 1992 108 WP MM ANGELA 1992-10-20 21:00:00 TS 12.8569 112.520 main 325 325 PPPP__________ WP241992 12.9925 112.500 60 0 12.6200 112.522 5 62 972 9 65 65 9 260 260 12.9075 112.300 3 58 980 12.9075 112.758 STS 55 975 2 0
1992286N12115 1992 108 WP MM ANGELA 1992-10-21 00:00:00 TS 12.9750 112.500 60 975 tokyo main 325 325 OOOO__________ jtwc_wp WP241992 13.1000 112.500 60 0 12.8000 112.500 4 60 975 9 60 60 9 260 260 0 13.0000 112.300 3 58 980 13.0000 112.700 STS 55 975 3 349
1992286N12115 1992 108 WP MM ANGELA 1992-10-21 03:00:00 TS 13.1287 112.458 main 326 316 PPPP__________ WP241992 13.2500 112.458 60 0 13.0075 112.465 4 60 975 9 60 60 9 260 260 13.1500 112.258 3 58 980 13.1075 112.650 STS 55 977 3 343
1992286N12115 1992 108 WP MM ANGELA 1992-10-21 06:00:00 TS 13.2750 112.400 60 975 tokyo main 317 308 OOOO__________ jtwc_wp WP241992 13.4000 112.400 60 0 13.2000 112.400 4 60 975 9 60 60 9 260 260 0 13.3000 112.200 3 58 980 13.2000 112.600 STS 55 980 3 335
1992286N12115 1992 108 WP MM ANGELA 1992-10-21 09:00:00 TS 13.3775 112.339 main 308 308 PPPP__________ WP241992 13.5150 112.350 57 0 13.3225 112.308 4 60 977 9 60 60 9 260 260 13.4150 112.150 3 58 980 13.2575 112.550 STS 50 982 2 325
1992286N12115 1992 108 WP MM ANGELA 1992-10-21 12:00:00 TS 13.4500 112.275 60 980 tokyo main 310 300 OOOO__________ jtwc_wp WP241992 13.6000 112.300 55 0 13.4000 112.200 4 60 980 9 60 60 9 260 260 0 13.5000 112.100 3 58 980 13.3000 112.500 TS 45 985 2 318
1992286N12115 1992 108 WP MM ANGELA 1992-10-21 15:00:00 TS 13.5056 112.220 main 300 300 PPPP__________ WP241992 13.6575 112.257 55 0 13.4575 112.100 4 60 980 9 60 60 9 250 250 13.5575 112.065 3 58 980 13.3500 112.457 TS 45 985 2 311
1992286N12115 1992 108 WP MM ANGELA 1992-10-21 18:00:00 TS 13.5500 112.150 60 980 tokyo main 302 292 OOOO__________ jtwc_wp WP241992 13.7000 112.200 55 0 13.5000 112.000 4 60 980 9 60 60 9 240 240 0 13.6000 112.000 3 58 980 13.4000 112.400 TS 45 985 2 302
1992286N12115 1992 108 WP MM ANGELA 1992-10-21 21:00:00 TS 13.6113 112.045 main 281 271 PPPP__________ WP241992 13.7575 112.108 55 0 13.5575 111.900 4 57 982 9 55 55 9 240 240 13.6650 111.850 3 53 982 13.4650 112.323 TS 47 982 2 295
1992286N12115 1992 108 WP MM ANGELA 1992-10-22 00:00:00 TS 13.6500 111.925 55 985 tokyo main 274 261 OOOO__________ jtwc_wp WP241992 13.8000 112.000 55 0 13.6000 111.800 4 55 985 9 50 50 9 240 240 0 13.7000 111.700 3 48 985 13.5000 112.200 STS 50 980 2 277
1992286N12115 1992 108 WP MM ANGELA 1992-10-22 03:00:00 TS 13.6362 111.829 main 261 250 PPPP__________ WP241992 13.8074 111.930 55 0 13.6150 111.715 4 55 985 9 50 50 9 240 240 13.6575 111.657 3 48 985 13.4650 112.015 STS 50 980 2 257
1992286N12115 1992 108 WP MM ANGELA 1992-10-22 06:00:00 TS 13.6000 111.700 55 985 tokyo main 250 230 OOOO__________ jtwc_wp WP241992 13.8000 111.800 55 0 13.6000 111.600 4 55 985 9 50 50 9 240 240 0 13.6000 111.600 3 48 985 13.4000 111.800 STS 50 980 3 259
1992286N12115 1992 108 WP MM ANGELA 1992-10-22 09:00:00 TS 13.5731 111.501 main 230 210 PPPP__________ WP241992 13.8000 111.537 50 0 13.5575 111.430 4 55 985 9 50 50 9 220 220 13.5925 111.438 3 48 985 13.3425 111.600 STS 50 980 4 263
1992286N12115 1992 108 WP MM ANGELA 1992-10-22 12:00:00 TS 13.5500 111.250 55 985 tokyo main 210 175 OOOO__________ jtwc_wp WP241992 13.8000 111.200 45 0 13.5000 111.200 4 55 985 9 50 50 9 200 200 0 13.6000 111.200 3 48 985 13.3000 111.400 STS 50 980 5 266
1992286N12115 1992 108 WP MM ANGELA 1992-10-22 15:00:00 TS 13.5394 110.976 main 175 146 PPPP__________ WP241992 13.8000 110.857 42 0 13.4500 110.915 4 55 985 9 50 50 9 200 200 13.6075 110.923 3 48 985 13.3000 111.208 STS 52 977 6 267
1992286N12115 1992 108 WP MM ANGELA 1992-10-22 18:00:00 TS 13.5250 110.675 55 985 tokyo main 146 118 OOOO__________ jtwc_wp WP241992 13.8000 110.500 40 0 13.4000 110.600 4 55 985 9 50 50 9 200 200 0 13.6000 110.600 3 48 985 13.3000 111.000 STS 55 975 6 265
1992286N12115 1992 108 WP MM ANGELA 1992-10-22 21:00:00 TS 13.4912 110.370 main 118 86 PPPP__________ WP241992 13.8074 110.158 40 0 13.3425 110.300 4 50 987 9 9 200 200 13.5575 110.257 3 43 987 13.2575 110.765 STS 57 972 6 263
1992286N12115 1992 108 WP MM ANGELA 1992-10-23 00:00:00 TS 13.4500 110.050 45 990 tokyo main 86 43 OOOO__________ jtwc_wp WP241992 13.8000 109.800 40 0 13.3000 110.000 3 45 990 0 9 200 200 0 13.5000 109.900 2 38 990 13.2000 110.500 STS 60 970 6 263
1992286N12115 1992 108 WP MM ANGELA 1992-10-23 03:00:00 TS 13.4143 109.729 main 43 10 PPPP__________ WP241992 13.7574 109.415 40 0 13.2924 109.708 3 45 991 0 9 200 200 13.4499 109.558 2 38 990 13.1574 110.238 STS 57 972 7 263
1992286N12115 1992 108 WP MM ANGELA 1992-10-23 06:00:00 TS 13.3750 109.375 45 992 tokyo main 10 0 OOOO__________ jtwc_wp WP241992 13.7000 109.000 40 0 13.3000 109.400 3 45 992 0 9 200 200 0 13.4000 109.200 2 38 990 13.1000 109.900 STS 55 975 7 264
1992286N12115 1992 108 WP MM ANGELA 1992-10-23 09:00:00 TS 13.3381 108.969 main 0 0 PPPP__________ WP241992 13.6650 108.558 37 0 13.3074 109.065 3 42 993 0 9 200 200 13.3575 108.793 2 38 990 13.0223 109.460 STS 47 980 9 265
1992286N12115 1992 108 WP MM ANGELA 1992-10-23 12:00:00 TS 13.3000 108.500 40 994 tokyo main 0 0 OOOO__________ jtwc_wp WP241992 13.6000 108.100 35 0 13.3000 108.700 3 40 994 0 9 200 200 0 13.3000 108.400 2 38 990 12.9000 108.900 TS 40 985 9 263
1992286N12115 1992 108 WP MM ANGELA 1992-10-23 15:00:00 TS 13.2232 108.047 main 0 0 PPPP__________ WP241992 13.4650 107.642 30 -1 13.2575 108.307 3 37 995 0 9 200 200 13.1998 108.100 2 33 992 12.7180 108.230 TS 32 990 9 260
1992286N12115 1992 108 WP MM ANGELA 1992-10-23 18:00:00 TS 13.1462 107.623 35 996 tokyo main 0 0 OOOO__________ jtwc_wp WP241992 13.3000 107.200 25 -1 13.2000 107.900 3 35 996 0 9 200 200 0 13.1000 107.800 1 29 995 12.5000 107.500 TD 25 995 8 263
1992286N12115 1992 108 WP MM ANGELA 1992-10-23 21:00:00 TS 13.1242 107.208 main 0 0 PPP___________ WP241992 13.1575 106.763 22 -1 13.1650 107.478 3 998 0 9 13.0501 107.385 1 29 995 TD 8 262
1992286N12115 1992 108 WP MM ANGELA 1992-10-24 00:00:00 TS 13.0364 106.818 1000 tokyo main 0 0 OOO___________ jtwc_wp WP241992 13.0000 106.400 20 -1 13.1000 107.100 2 1000 0 0 0 13.0000 107.000 1 29 995 7 251
1992286N12115 1992 108 WP MM ANGELA 1992-10-24 03:00:00 TS 12.8974 106.544 main 0 0 PPP___________ WP241992 12.8149 106.163 20 -1 12.9724 106.820 2 1002 0 0 12.9124 106.755 1 26 997 6 236
1992286N12115 1992 108 WP MM ANGELA 1992-10-24 06:00:00 TS 12.7111 106.333 1004 tokyo main 0 0 OOO___________ jtwc_wp WP241992 12.6000 106.000 20 -1 12.8000 106.600 2 1004 0 0 0 12.8000 106.600 1 23 1000 6 226
1992286N12115 1992 108 WP MM ANGELA 1992-10-24 09:00:00 TS 12.4825 106.110 main 0 0 PP____________ WP241992 12.3500 105.843 17 -1 12.6150 106.378 2 1005 0 0 1 6 219
1992286N12115 1992 108 WP MM ANGELA 1992-10-24 12:00:00 TS 12.2500 105.950 1006 tokyo main 0 0 OO____________ jtwc_wp WP241992 12.1000 105.700 15 -1 12.4000 106.200 2 1006 0 0 0 5 213
1992286N12115 1992 108 WP MM ANGELA 1992-10-24 15:00:00 TS 12.0325 105.814 main 0 0 PP____________ WP241992 11.8850 105.550 15 -1 12.1800 106.078 2 1006 0 0 5 208
1992286N12115 1992 108 WP MM ANGELA 1992-10-24 18:00:00 TS 11.8000 105.700 1006 tokyo main 0 0 OO____________ jtwc_wp WP241992 11.7000 105.400 15 -1 11.9000 106.000 2 1006 0 0 0 6 203
1992286N12115 1992 108 WP MM ANGELA 1992-10-24 21:00:00 TS 11.5250 105.593 main 0 0 PP____________ WP241992 11.5500 105.243 15 -1 11.5000 105.943 2 1006 0 0 6 200
1992286N12115 1992 108 WP MM ANGELA 1992-10-25 00:00:00 TS 11.2500 105.500 1006 tokyo main 0 0 OO____________ jtwc_wp WP241992 11.4000 105.100 15 -1 11.1000 105.900 2 1006 0 0 0 5 198
1992286N12115 1992 108 WP MM ANGELA 1992-10-25 03:00:00 TS 11.0212 105.421 main 0 0 PP____________ WP241992 11.2075 104.993 15 -1 10.8350 105.850 2 1006 0 0 5 198
1992286N12115 1992 108 WP MM ANGELA 1992-10-25 06:00:00 TS 10.8000 105.350 1006 tokyo main 0 0 OO____________ jtwc_wp WP241992 11.0000 104.900 15 -1 10.6000 105.800 2 1006 0 0 0 5 196
1992286N12115 1992 108 WP MM ANGELA 1992-10-25 09:00:00 TS 10.5462 105.283 main 0 0 PP____________ WP241992 10.7925 104.808 15 -1 10.3000 105.758 2 1006 0 0 5 197
1992286N12115 1992 108 WP MM ANGELA 1992-10-25 12:00:00 TS 10.3000 105.200 1006 tokyo main 0 0 OO____________ jtwc_wp WP241992 10.6000 104.700 15 -1 10.0000 105.700 2 1006 0 0 0 5 202
1992286N12115 1992 108 WP MM ANGELA 1992-10-25 15:00:00 TS 10.0925 105.094 main 0 0 PP____________ WP241992 10.4425 104.558 15 -1 9.74247 105.630 2 1006 0 0 5 212
1992286N12115 1992 108 WP MM ANGELA 1992-10-25 18:00:00 TS 9.90000 104.950 1006 tokyo main 10 10 OO____________ jtwc_wp WP241992 10.3000 104.400 15 -1 9.50000 105.500 2 1006 0 0 0 5 220
1992286N12115 1992 108 WP MM ANGELA 1992-10-25 21:00:00 TS 9.69252 104.754 main 10 10 PP____________ WP241992 10.1500 104.250 17 -1 9.23505 105.257 2 1006 0 0 6 225
1992286N12115 1992 108 WP MM ANGELA 1992-10-26 00:00:00 TS 9.50000 104.550 1006 tokyo main 32 32 OO____________ jtwc_wp WP241992 10.0000 104.100 20 -1 9.00000 105.000 2 1006 0 0 0 5 225
1992286N12115 1992 108 WP MM ANGELA 1992-10-26 03:00:00 TS 9.35372 104.404 main 54 54 PP____________ WP241992 9.86498 103.958 22 -1 8.84245 104.850 2 1006 0 0 4 224
1992286N12115 1992 108 WP MM ANGELA 1992-10-26 06:00:00 TS 9.20000 104.250 1006 tokyo main 65 65 OO____________ jtwc_wp WP241992 9.70000 103.800 25 -1 8.70000 104.700 2 1006 0 0 0 5 224
1992286N12115 1992 108 WP MM ANGELA 1992-10-26 09:00:00 TS 8.97876 104.032 main 90 88 PP____________ WP241992 9.46501 103.600 27 -1 8.49251 104.465 2 1006 0 0 6 225
1992286N12115 1992 108 WP MM ANGELA 1992-10-26 12:00:00 TS 8.75000 103.800 1006 tokyo main 109 109 OO____________ jtwc_wp WP241992 9.20000 103.400 30 -1 8.30000 104.200 2 1006 0 0 0 6 225
1992286N12115 1992 108 WP MM ANGELA 1992-10-26 15:00:00 TS 8.54873 103.600 main 136 136 PP____________ WP241992 8.92747 103.250 30 -1 8.16999 103.950 2 1005 0 0 5 228
1992286N12115 1992 108 WP MM ANGELA 1992-10-26 18:00:00 TS 8.40000 103.400 1004 tokyo main 160 160 OO____________ jtwc_wp WP241992 8.70000 103.100 30 -1 8.10000 103.700 2 1004 0 0 0 5 242
1992286N12115 1992 108 WP MM ANGELA 1992-10-26 21:00:00 TS 8.32375 103.175 main 184 184 PP____________ WP241992 8.57000 102.908 30 -1 8.07750 103.443 2 1004 0 0 5 257
1992286N12115 1992 108 WP MM ANGELA 1992-10-27 00:00:00 TS 8.30000 102.950 1004 tokyo main 205 205 OO____________ jtwc_wp WP241992 8.50000 102.700 30 -1 8.10000 103.200 2 1004 0 0 0 4 265
1992286N12115 1992 108 WP MM ANGELA 1992-10-27 03:00:00 TS 8.28874 102.743 main 207 201 PP____________ WP241992 8.43499 102.500 30 -1 8.14249 102.985 2 1003 0 0 4 270
1992286N12115 1992 108 WP MM ANGELA 1992-10-27 06:00:00 TS 8.30000 102.550 1002 tokyo main 201 189 OO____________ jtwc_wp WP241992 8.40000 102.300 30 -1 8.20000 102.800 2 1002 0 0 0 4 274
1992286N12115 1992 108 WP MM ANGELA 1992-10-27 09:00:00 TS 8.31374 102.364 main 189 180 PP____________ WP241992 8.37749 102.100 35 0 8.25000 102.628 2 1001 0 0 4 278
1992286N12115 1992 108 WP MM ANGELA 1992-10-27 12:00:00 TS 8.35000 102.200 1000 tokyo main 191 187 OO____________ jtwc_wp WP241992 8.40000 101.900 40 0 8.30000 102.500 2 1000 0 0 0 3 288
1992286N12115 1992 108 WP MM ANGELA 1992-10-27 15:00:00 TS 8.41375 102.056 main 187 184 PP____________ WP241992 8.47752 101.678 42 0 8.34999 102.435 2 999 0 0 3 301
1992286N12115 1992 108 WP MM ANGELA 1992-10-27 18:00:00 TS 8.50000 101.950 35 998 tokyo main 192 181 OO____________ jtwc_wp WP241992 8.60000 101.500 45 0 8.40000 102.400 3 35 998 0 9 100 100 0 3 316
1992286N12115 1992 108 WP MM ANGELA 1992-10-27 21:00:00 TS 8.59624 101.878 main 184 184 PP____________ WP241992 8.74248 101.413 50 0 8.45000 102.343 3 35 998 0 9 100 100 2 333
1992286N12115 1992 108 WP MM ANGELA 1992-10-28 00:00:00 TS 8.70000 101.850 35 998 tokyo main 188 178 OO____________ jtwc_wp WP241992 8.90000 101.400 55 0 8.50000 102.300 3 35 998 0 9 100 100 0 2 352
1992286N12115 1992 108 WP MM ANGELA 1992-10-28 03:00:00 TS 8.80000 101.853 main 192 192 PP____________ WP241992 9.05750 101.427 57 0 8.54249 102.278 3 35 997 0 9 100 100 2 17
1992286N12115 1992 108 WP MM ANGELA 1992-10-28 06:00:00 TS 8.90000 101.900 35 996 tokyo main 195 195 OO____________ jtwc_wp WP241992 9.20000 101.500 60 0 8.60000 102.300 3 35 996 0 9 100 100 0 2 30
1992286N12115 1992 108 WP MM ANGELA 1992-10-28 09:00:00 TS 9.00748 101.974 main 209 209 PP____________ WP241992 9.31500 101.592 55 0 8.69996 102.355 3 35 996 0 9 100 100 3 45
1992286N12115 1992 108 WP MM ANGELA 1992-10-28 12:00:00 TS 9.10000 102.100 35 996 tokyo main 223 203 OO____________ jtwc_wp WP241992 9.40000 101.700 50 0 8.80000 102.500 3 35 996 0 9 100 100 0 3 63
1992286N12115 1992 108 WP MM ANGELA 1992-10-28 15:00:00 TS 9.16501 102.281 main 203 189 PP____________ WP241992 9.46499 101.793 45 0 8.86503 102.770 3 35 996 0 9 100 100 4 76
1992286N12115 1992 108 WP MM ANGELA 1992-10-28 18:00:00 TS 9.20000 102.500 35 996 tokyo main 189 175 OO____________ jtwc_wp WP241992 9.50000 101.900 40 0 8.90000 103.100 3 35 996 0 9 100 100 0 4 85
1992286N12115 1992 108 WP MM ANGELA 1992-10-28 21:00:00 TS 9.20376 102.733 main 175 164 PP____________ WP241992 9.50750 102.043 37 0 8.90002 103.423 3 35 997 0 9 100 100 4 90
1992286N12115 1992 108 WP MM ANGELA 1992-10-29 00:00:00 TS 9.20000 102.950 35 998 tokyo main 159 155 OO____________ jtwc_wp WP241992 9.50000 102.200 35 0 8.90000 103.700 3 35 998 0 9 100 100 0 4 88
1992286N12115 1992 108 WP MM ANGELA 1992-10-29 03:00:00 TS 9.21747 103.111 main 155 149 PP____________ WP241992 9.49998 102.343 32 -1 8.93497 103.880 3 1000 0 9 4 88
1992286N12115 1992 108 WP MM ANGELA 1992-10-29 06:00:00 TS 9.21429 103.357 1002 tokyo main 147 139 OO____________ jtwc_wp WP241992 9.50000 102.500 30 -1 9.00000 104.000 2 1002 0 0 0 5 89
1992286N12115 1992 108 WP MM ANGELA 1992-10-29 09:00:00 TS 9.22834 103.645 main 139 108 PP____________ WP241992 9.50003 102.690 27 -1 9.09250 104.122 2 1004 0 0 6 85
1992286N12115 1992 108 WP MM ANGELA 1992-10-29 12:00:00 TS 9.26000 103.940 1006 tokyo main 109 76 OO____________ jtwc_wp WP241992 9.50000 102.900 25 -1 9.20000 104.200 2 1006 0 0 0 6 82
1992286N12115 1992 108 WP MM ANGELA 1992-10-29 15:00:00 TS 9.30749 104.223 main 76 76 _P____________ WP241992 -1 9.30749 104.223 2 1007 0 0 3 62
1992286N12115 1992 108 WP MM ANGELA 1992-10-29 18:00:00 TS 9.40000 104.200 1008 tokyo main 76 76 _O____________ -1 9.40000 104.200 2 1008 0 0 0 2 341
1992286N12115 1992 108 WP MM ANGELA 1992-10-29 21:00:00 TS 9.45749 104.172 main 76 76 _P____________ -1 9.45749 104.172 2 1008 0 0 1 317
1992286N12115 1992 108 WP MM ANGELA 1992-10-30 00:00:00 TS 9.50000 104.100 1008 tokyo main 86 86 _O____________ -1 9.50000 104.100 2 1008 0 0 0 2 296
1992286N12115 1992 108 WP MM ANGELA 1992-10-30 03:00:00 TS 9.55751 103.965 main 86 86 _P____________ -1 9.55751 103.965 2 1008 0 0 3 289
1992286N12115 1992 108 WP MM ANGELA 1992-10-30 06:00:00 TS 9.60000 103.800 1008 tokyo main 100 100 _O____________ -1 9.60000 103.800 2 1008 0 0 0 3 279
1992286N12115 1992 108 WP MM ANGELA 1992-10-30 09:00:00 TS 9.61001 103.645 main 100 100 _P____________ -1 9.61001 103.645 2 1008 0 0 3 270
1992286N12115 1992 108 WP MM ANGELA 1992-10-30 12:00:00 TS 9.60000 103.500 1008 tokyo main 101 _O____________ -1 9.60000 103.500 2 1008 0 0 0 3 266

Digital Typhoon Data and Search

About IBTrACS Database

This database is a web-friendly format of International Best Track Archive for Climate Stewardship (IBTrACS), a global best track data archive curated by NOAA dating back to 1842.

Updated: 2021-11-26